Time;durP1;ratioP1;P1;durP2;ratioP2;P2;SDS_P1;SDS_P2;PMS_P1;PMS_P2;Temp;Humidity;BMP_temperature;BMP_pressure;BME280_temperature;BME280_humidity;BME280_pressure;Samples;Min_cycle;Max_cycle;Signal;HPM_P1;HPM_P2
2023/10/02 00:04:16;;;;;;;10.07;4.13;;;;;;;;;;10295608;28;20510;-67
2023/10/02 00:09:11;;;;;;;5.55;3.50;;;;;;;;;;10293381;28;20065;-66
2023/10/02 00:14:22;;;;;;;8.25;3.83;;;;;;;;;;10291434;28;20088;-67
2023/10/02 00:19:23;;;;;;;7.25;3.58;;;;;;;;;;10295447;28;20083;-66
2023/10/02 00:24:24;;;;;;;7.40;3.90;;;;;;;;;;10293934;28;20076;-66
2023/10/02 00:29:24;;;;;;;4.00;2.97;;;;;;;;;;10293635;28;20103;-67
2023/10/02 00:34:31;;;;;;;9.05;3.63;;;;;;;;;;10292153;28;20111;-67
2023/10/02 00:39:32;;;;;;;5.18;2.78;;;;;;;;;;10307463;28;20518;-67
2023/10/02 00:44:51;;;;;;;5.43;3.15;;;;;;;;;;10285402;28;20060;-67
2023/10/02 00:50:06;;;;;;;6.88;3.33;;;;;;;;;;10288654;28;20084;-66
2023/10/02 00:55:06;;;;;;;7.57;3.33;;;;;;;;;;10290796;28;20072;-67
2023/10/02 01:00:17;;;;;;;8.10;3.30;;;;;;;;;;10290755;28;20525;-66
2023/10/02 01:05:16;;;;;;;9.10;3.58;;;;;;;;;;10297248;28;20084;-65
2023/10/02 01:10:23;;;;;;;8.10;3.30;;;;;;;;;;10300122;28;20072;-66
2023/10/02 01:15:26;;;;;;;8.68;3.55;;;;;;;;;;10299160;28;20081;-66
2023/10/02 01:20:48;;;;;;;6.25;3.17;;;;;;;;;;10293705;28;20474;-66
2023/10/02 01:25:49;;;;;;;7.82;3.88;;;;;;;;;;10289819;28;20487;-66
2023/10/02 01:30:50;;;;;;;7.35;3.22;;;;;;;;;;10285932;28;20178;-68
2023/10/02 01:35:49;;;;;;;9.55;3.40;;;;;;;;;;10290267;28;20072;-67
2023/10/02 01:40:53;;;;;;;6.05;3.38;;;;;;;;;;10288660;28;20084;-66
2023/10/02 01:45:56;;;;;;;7.30;4.07;;;;;;;;;;10289302;28;20072;-65
2023/10/02 01:51:09;;;;;;;12.55;4.07;;;;;;;;;;10289098;28;20079;-66
2023/10/02 01:56:11;;;;;;;10.52;3.80;;;;;;;;;;10298155;28;20044;-66
2023/10/02 02:01:10;;;;;;;5.55;3.03;;;;;;;;;;10288464;28;20084;-67
2023/10/02 02:06:12;;;;;;;6.25;2.92;;;;;;;;;;10288088;28;20075;-67
2023/10/02 02:11:19;;;;;;;10.13;3.15;;;;;;;;;;10288915;28;20076;-67
2023/10/02 02:16:21;;;;;;;7.07;3.50;;;;;;;;;;10289074;28;20091;-65
2023/10/02 02:21:21;;;;;;;8.13;3.17;;;;;;;;;;10303957;28;20076;-66
2023/10/02 02:26:22;;;;;;;10.07;3.30;;;;;;;;;;10290466;28;20522;-66
2023/10/02 02:31:33;;;;;;;6.50;3.90;;;;;;;;;;10293427;28;20153;-67
2023/10/02 02:36:35;;;;;;;9.85;3.58;;;;;;;;;;10284129;28;20076;-67
2023/10/02 02:41:35;;;;;;;7.22;3.42;;;;;;;;;;10289995;28;20067;-67
2023/10/02 02:46:33;;;;;;;7.22;3.20;;;;;;;;;;10282527;28;20073;-67
2023/10/02 02:51:32;;;;;;;13.38;3.47;;;;;;;;;;10287077;28;20096;-66
2023/10/02 02:56:31;;;;;;;4.28;2.92;;;;;;;;;;10290457;28;20072;-65
2023/10/02 03:01:30;;;;;;;6.13;3.50;;;;;;;;;;10284922;28;20071;-66
2023/10/02 03:06:32;;;;;;;10.48;4.03;;;;;;;;;;10287481;28;20065;-67
2023/10/02 03:11:32;;;;;;;5.70;3.30;;;;;;;;;;10288538;28;20489;-67
2023/10/02 03:16:31;;;;;;;11.93;3.67;;;;;;;;;;10287888;28;20083;-67
2023/10/02 03:21:30;;;;;;;7.63;4.05;;;;;;;;;;10287390;28;20080;-67
2023/10/02 03:26:37;;;;;;;9.18;4.20;;;;;;;;;;10288102;28;20072;-67
2023/10/02 03:31:43;;;;;;;11.95;4.07;;;;;;;;;;10290074;28;20069;-66
2023/10/02 03:36:42;;;;;;;9.05;4.47;;;;;;;;;;10286910;28;20065;-67
2023/10/02 03:41:48;;;;;;;4.68;3.22;;;;;;;;;;10284928;28;20080;-66
2023/10/02 03:46:48;;;;;;;10.27;3.60;;;;;;;;;;10286587;28;20076;-67
2023/10/02 03:51:50;;;;;;;10.63;4.22;;;;;;;;;;10288932;28;20087;-65
2023/10/02 03:56:49;;;;;;;11.48;4.32;;;;;;;;;;10288944;28;20075;-67
2023/10/02 04:01:50;;;;;;;7.15;4.45;;;;;;;;;;10293976;28;20087;-67
2023/10/02 04:06:53;;;;;;;6.60;3.78;;;;;;;;;;10288358;28;20072;-67
2023/10/02 04:11:52;;;;;;;13.15;4.75;;;;;;;;;;10290974;28;20524;-68
2023/10/02 04:16:52;;;;;;;11.30;4.15;;;;;;;;;;10293778;28;20061;-68
2023/10/02 04:21:52;;;;;;;6.35;3.75;;;;;;;;;;10289119;28;20080;-68
2023/10/02 04:26:54;;;;;;;13.15;4.18;;;;;;;;;;10287270;28;20069;-67
2023/10/02 04:32:12;;;;;;;22.58;4.85;;;;;;;;;;10291398;28;20474;-68
2023/10/02 04:37:20;;;;;;;7.18;4.05;;;;;;;;;;10291293;28;20063;-67
2023/10/02 04:42:21;;;;;;;11.68;3.45;;;;;;;;;;10284337;28;20067;-67
2023/10/02 04:47:21;;;;;;;8.65;3.70;;;;;;;;;;10287356;28;20082;-67
2023/10/02 04:52:37;;;;;;;7.03;3.17;;;;;;;;;;10289233;28;20064;-68
2023/10/02 04:57:35;;;;;;;11.95;3.85;;;;;;;;;;10291743;28;20076;-68
2023/10/02 05:02:39;;;;;;;11.15;4.03;;;;;;;;;;10290046;28;20083;-68
2023/10/02 05:07:38;;;;;;;13.23;4.47;;;;;;;;;;10290427;28;20068;-68
2023/10/02 05:12:44;;;;;;;16.45;4.80;;;;;;;;;;10286860;28;20076;-66
2023/10/02 05:17:46;;;;;;;8.10;3.85;;;;;;;;;;10295597;28;20071;-66
2023/10/02 05:22:57;;;;;;;11.48;5.25;;;;;;;;;;10290792;28;20075;-67
2023/10/02 05:27:57;;;;;;;13.15;5.63;;;;;;;;;;10288787;28;20203;-67
2023/10/02 05:32:57;;;;;;;6.93;3.88;;;;;;;;;;10287113;28;20073;-67
2023/10/02 05:37:55;;;;;;;12.35;4.05;;;;;;;;;;10289396;28;20075;-63
2023/10/02 05:43:09;;;;;;;11.38;3.92;;;;;;;;;;10291089;28;20072;-63
2023/10/02 05:48:14;;;;;;;8.80;3.80;;;;;;;;;;10291971;28;20068;-63
2023/10/02 05:53:12;;;;;;;15.43;3.80;;;;;;;;;;10292714;28;20071;-63
2023/10/02 05:58:20;;;;;;;10.77;4.13;;;;;;;;;;10293166;28;20092;-63
2023/10/02 06:03:21;;;;;;;14.18;4.55;;;;;;;;;;10292167;28;20084;-67
2023/10/02 06:08:19;;;;;;;9.35;4.55;;;;;;;;;;10286389;28;20064;-67
2023/10/02 06:13:17;;;;;;;14.38;4.30;;;;;;;;;;10281635;28;20079;-67
2023/10/02 06:18:24;;;;;;;8.95;3.70;;;;;;;;;;10287881;28;20584;-68
2023/10/02 06:23:25;;;;;;;9.77;4.00;;;;;;;;;;10291338;28;20095;-67
2023/10/02 06:28:27;;;;;;;10.32;3.65;;;;;;;;;;10289069;28;20092;-72
2023/10/02 06:33:25;;;;;;;9.65;3.92;;;;;;;;;;10288368;28;20063;-73
2023/10/02 06:38:25;;;;;;;5.55;3.70;;;;;;;;;;10287863;28;20079;-73
2023/10/02 06:43:29;;;;;;;7.30;4.00;;;;;;;;;;10287462;28;20088;-72
2023/10/02 06:48:27;;;;;;;7.40;3.67;;;;;;;;;;10284194;28;20075;-71
2023/10/02 06:53:27;;;;;;;7.38;4.03;;;;;;;;;;10280990;28;20075;-72
2023/10/02 06:58:26;;;;;;;10.55;4.47;;;;;;;;;;10286640;28;20076;-71
2023/10/02 07:03:24;;;;;;;6.60;4.00;;;;;;;;;;10285479;28;20084;-71
2023/10/02 07:08:26;;;;;;;12.00;5.03;;;;;;;;;;10286104;28;20068;-71
2023/10/02 07:13:27;;;;;;;8.35;5.32;;;;;;;;;;10290308;28;20037;-71
2023/10/02 07:18:35;;;;;;;8.68;4.05;;;;;;;;;;10288896;28;20080;-72
2023/10/02 07:23:37;;;;;;;8.10;4.15;;;;;;;;;;10289107;28;20084;-71
2023/10/02 07:28:51;;;;;;;9.10;4.10;;;;;;;;;;10289069;28;20111;-71
2023/10/02 07:39:35;;;;;;;10.48;3.97;;;;;;;;;;10297035;28;20074;-71
2023/10/02 07:44:37;;;;;;;7.43;4.03;;;;;;;;;;10292146;28;20072;-70
2023/10/02 07:49:40;;;;;;;9.50;4.13;;;;;;;;;;10291339;28;20485;-71
2023/10/02 07:54:49;;;;;;;10.57;4.90;;;;;;;;;;10296553;28;20481;-70
2023/10/02 07:59:49;;;;;;;10.85;4.80;;;;;;;;;;10293495;28;20072;-71
2023/10/02 08:04:48;;;;;;;11.38;4.70;;;;;;;;;;10293967;28;20080;-70
2023/10/02 08:09:48;;;;;;;20.13;11.52;;;;;;;;;;10293749;28;20064;-70
2023/10/02 08:14:48;;;;;;;11.70;7.22;;;;;;;;;;10299992;28;20084;-71
2023/10/02 08:19:56;;;;;;;8.98;5.28;;;;;;;;;;10301767;28;20091;-70
2023/10/02 08:24:56;;;;;;;13.90;4.75;;;;;;;;;;10296582;28;20075;-72
2023/10/02 08:29:54;;;;;;;10.57;6.45;;;;;;;;;;10305096;28;20516;-70
2023/10/02 08:35:13;;;;;;;14.85;4.20;;;;;;;;;;10295681;28;20079;-71
2023/10/02 08:40:44;;;;;;;8.77;3.83;;;;;;;;;;10291441;28;20084;-70
2023/10/02 08:45:44;;;;;;;13.93;4.05;;;;;;;;;;10292753;28;20087;-71
2023/10/02 08:50:47;;;;;;;15.82;6.95;;;;;;;;;;10294841;28;20064;-71
2023/10/02 08:55:54;;;;;;;18.58;7.75;;;;;;;;;;10295034;28;20056;-71
2023/10/02 09:01:17;;;;;;;8.88;4.72;;;;;;;;;;10289106;28;20510;-71
2023/10/02 09:06:28;;;;;;;12.30;4.80;;;;;;;;;;10291249;28;20072;-71
2023/10/02 09:11:34;;;;;;;12.13;5.07;;;;;;;;;;10291732;28;20641;-72
2023/10/02 09:16:32;;;;;;;11.52;5.30;;;;;;;;;;10293198;28;20067;-70
2023/10/02 09:21:46;;;;;;;8.10;4.32;;;;;;;;;;10298618;28;20079;-70
2023/10/02 09:26:45;;;;;;;13.18;3.83;;;;;;;;;;10293797;28;20075;-70
2023/10/02 09:31:44;;;;;;;8.90;4.57;;;;;;;;;;10293450;28;20071;-71
2023/10/02 09:36:52;;;;;;;10.52;4.38;;;;;;;;;;10291510;28;20072;-70
2023/10/02 09:42:10;;;;;;;60.83;10.63;;;;;;;;;;10293097;28;20076;-70
2023/10/02 09:47:09;;;;;;;7.60;4.05;;;;;;;;;;10291743;28;20063;-71
2023/10/02 09:52:15;;;;;;;11.23;4.57;;;;;;;;;;10292090;28;20120;-70
2023/10/02 09:57:16;;;;;;;11.63;4.50;;;;;;;;;;10291344;28;20082;-70
2023/10/02 10:02:49;;;;;;;15.77;4.05;;;;;;;;;;10292682;28;20184;-69
2023/10/02 10:07:52;;;;;;;5.90;3.50;;;;;;;;;;10291098;28;20067;-69
2023/10/02 10:12:54;;;;;;;10.57;4.07;;;;;;;;;;10279778;28;20091;-69
2023/10/02 10:17:56;;;;;;;9.90;3.97;;;;;;;;;;10288356;28;20082;-70
2023/10/02 10:22:58;;;;;;;9.85;4.25;;;;;;;;;;10290897;28;20064;-71
2023/10/02 10:28:05;;;;;;;6.30;3.70;;;;;;;;;;10289632;28;20092;-70
2023/10/02 10:33:26;;;;;;;11.23;4.43;;;;;;;;;;10290257;28;20072;-71
2023/10/02 10:38:36;;;;;;;6.95;4.28;;;;;;;;;;10291521;28;20090;-72
2023/10/02 10:48:59;;;;;;;11.13;3.83;;;;;;;;;;10274000;28;20103;-72
2023/10/02 10:54:12;;;;;;;6.32;3.67;;;;;;;;;;10290044;28;20094;-71
2023/10/02 10:59:24;;;;;;;10.73;4.35;;;;;;;;;;10291782;28;20072;-71
2023/10/02 11:04:27;;;;;;;7.95;3.92;;;;;;;;;;10287810;28;20076;-70
2023/10/02 11:09:25;;;;;;;8.82;4.45;;;;;;;;;;10287563;28;20065;-71
2023/10/02 11:14:35;;;;;;;10.48;4.28;;;;;;;;;;10295140;28;20070;-72
2023/10/02 11:19:50;;;;;;;11.48;4.00;;;;;;;;;;10287347;28;20048;-70
2023/10/02 11:25:17;;;;;;;12.17;4.40;;;;;;;;;;10287854;28;20502;-71
2023/10/02 11:30:30;;;;;;;10.90;3.95;;;;;;;;;;10289210;28;20080;-69
2023/10/02 11:35:29;;;;;;;7.15;4.00;;;;;;;;;;10290082;28;20068;-70
2023/10/02 11:40:28;;;;;;;12.07;4.30;;;;;;;;;;10288470;28;20075;-70
2023/10/02 11:45:29;;;;;;;8.88;4.15;;;;;;;;;;10294377;28;20660;-70
2023/10/02 11:50:28;;;;;;;9.38;4.40;;;;;;;;;;10288865;28;20041;-70
2023/10/02 12:16:57;;;;;;;11.35;4.03;;;;;;;;;;10326552;28;20390;-71
2023/10/02 12:21:55;;;;;;;5.55;4.03;;;;;;;;;;10321129;28;20080;-71
2023/10/02 12:27:10;;;;;;;13.98;5.18;;;;;;;;;;10323355;28;20072;-67
2023/10/02 12:32:11;;;;;;;7.57;4.68;;;;;;;;;;10325578;28;20087;-67
2023/10/02 12:37:11;;;;;;;16.05;4.85;;;;;;;;;;10322493;28;20072;-68
2023/10/02 12:42:09;;;;;;;12.98;4.63;;;;;;;;;;10325460;28;20068;-68
2023/10/02 12:47:08;;;;;;;7.28;4.32;;;;;;;;;;10324021;28;20080;-68
2023/10/02 12:52:09;;;;;;;12.10;4.80;;;;;;;;;;10324847;28;20075;-68
2023/10/02 12:57:09;;;;;;;9.55;4.32;;;;;;;;;;10321876;28;20091;-68
2023/10/02 13:02:07;;;;;;;9.35;4.43;;;;;;;;;;10320993;28;20076;-67
2023/10/02 13:07:08;;;;;;;11.73;5.13;;;;;;;;;;10324403;28;20073;-68
2023/10/02 13:12:07;;;;;;;14.43;4.97;;;;;;;;;;10322811;28;20072;-68
2023/10/02 13:17:05;;;;;;;14.20;4.35;;;;;;;;;;10299751;28;20072;-68
2023/10/02 13:22:04;;;;;;;12.88;4.10;;;;;;;;;;10296282;28;20072;-68
2023/10/02 13:27:04;;;;;;;12.23;5.50;;;;;;;;;;10295495;28;20069;-68
2023/10/02 13:32:05;;;;;;;11.07;4.70;;;;;;;;;;10294317;28;20069;-68
2023/10/02 13:37:05;;;;;;;21.85;8.13;;;;;;;;;;10294771;28;20075;-68
2023/10/02 13:42:04;;;;;;;20.25;5.82;;;;;;;;;;10293355;28;20072;-67
2023/10/02 13:47:03;;;;;;;22.35;8.77;;;;;;;;;;10293509;28;20513;-68
2023/10/02 13:52:02;;;;;;;20.85;6.93;;;;;;;;;;10295852;28;20462;-68
2023/10/02 13:57:03;;;;;;;10.88;4.78;;;;;;;;;;10289962;28;20087;-68
2023/10/02 14:02:04;;;;;;;11.90;4.38;;;;;;;;;;10288714;28;20092;-67
2023/10/02 14:07:03;;;;;;;16.75;4.82;;;;;;;;;;10292470;28;20155;-68
2023/10/02 14:12:04;;;;;;;16.90;7.22;;;;;;;;;;10292095;28;20080;-67
2023/10/02 14:17:04;;;;;;;9.82;4.97;;;;;;;;;;10293271;28;20076;-67
2023/10/02 14:22:03;;;;;;;12.32;5.05;;;;;;;;;;10287439;28;20075;-67
2023/10/02 14:27:02;;;;;;;18.08;5.28;;;;;;;;;;10285538;28;20083;-68
2023/10/02 14:32:00;;;;;;;15.82;6.90;;;;;;;;;;10287518;28;20072;-68
2023/10/02 14:37:01;;;;;;;13.20;6.03;;;;;;;;;;10287318;28;20599;-66
2023/10/02 14:42:03;;;;;;;18.48;7.03;;;;;;;;;;10290074;28;20090;-69
2023/10/02 14:47:02;;;;;;;22.63;8.23;;;;;;;;;;10290865;28;20102;-69
2023/10/02 14:52:01;;;;;;;12.50;4.93;;;;;;;;;;10291708;28;20073;-67
2023/10/02 14:57:00;;;;;;;15.00;4.90;;;;;;;;;;10292878;28;20088;-68
2023/10/02 15:01:58;;;;;;;11.50;4.47;;;;;;;;;;10292036;28;20465;-68
2023/10/02 15:06:59;;;;;;;9.65;5.35;;;;;;;;;;10289072;28;20071;-67
2023/10/02 15:11:59;;;;;;;15.60;4.72;;;;;;;;;;10290193;28;20073;-69
2023/10/02 15:16:57;;;;;;;13.82;5.07;;;;;;;;;;10290504;28;20078;-67
2023/10/02 15:21:56;;;;;;;11.32;6.43;;;;;;;;;;10289237;28;20080;-68
2023/10/02 15:26:56;;;;;;;15.82;6.05;;;;;;;;;;10291802;28;20068;-67
2023/10/02 15:31:55;;;;;;;15.73;6.03;;;;;;;;;;10290278;28;20063;-67
2023/10/02 15:36:56;;;;;;;15.00;6.47;;;;;;;;;;10289466;28;20080;-67
2023/10/02 15:41:55;;;;;;;15.10;5.40;;;;;;;;;;10287950;28;20072;-67
2023/10/02 15:46:53;;;;;;;9.63;5.60;;;;;;;;;;10287822;28;20071;-67
2023/10/02 15:51:52;;;;;;;14.18;5.20;;;;;;;;;;10291591;28;20076;-67
2023/10/02 15:56:51;;;;;;;14.65;5.38;;;;;;;;;;10282491;28;20069;-68
2023/10/02 16:01:49;;;;;;;14.48;5.72;;;;;;;;;;10290691;28;20321;-66
2023/10/02 16:06:48;;;;;;;20.75;5.38;;;;;;;;;;10287435;28;20083;-68
2023/10/02 16:12:02;;;;;;;20.55;6.18;;;;;;;;;;10289336;28;20075;-67
2023/10/02 16:17:02;;;;;;;17.30;6.00;;;;;;;;;;10289789;28;20091;-67
2023/10/02 16:22:03;;;;;;;11.18;4.05;;;;;;;;;;10289734;28;20068;-68
2023/10/02 16:27:03;;;;;;;12.68;5.65;;;;;;;;;;10289121;28;20069;-67
2023/10/02 16:32:04;;;;;;;13.30;5.93;;;;;;;;;;10287737;28;20033;-68
2023/10/02 16:37:03;;;;;;;11.55;5.97;;;;;;;;;;10287742;28;20073;-68
2023/10/02 16:42:07;;;;;;;19.38;6.03;;;;;;;;;;10287488;28;20529;-67
2023/10/02 16:47:06;;;;;;;14.60;5.55;;;;;;;;;;10290714;28;20077;-67
2023/10/02 16:52:05;;;;;;;11.65;4.70;;;;;;;;;;10292635;28;20080;-68
2023/10/02 16:57:03;;;;;;;16.73;5.05;;;;;;;;;;10297006;28;20076;-67
2023/10/02 17:02:03;;;;;;;7.75;4.20;;;;;;;;;;10296808;28;20083;-67
2023/10/02 17:07:03;;;;;;;10.95;4.55;;;;;;;;;;10296992;28;20052;-67
2023/10/02 17:12:04;;;;;;;11.35;4.72;;;;;;;;;;10298396;28;20090;-68
2023/10/02 17:17:04;;;;;;;9.43;4.43;;;;;;;;;;10294376;28;20072;-67
2023/10/02 17:22:03;;;;;;;12.13;4.68;;;;;;;;;;10272278;28;20049;-68
2023/10/02 17:27:02;;;;;;;10.32;4.70;;;;;;;;;;10297166;28;20072;-69
2023/10/02 17:32:05;;;;;;;13.20;4.45;;;;;;;;;;10293181;28;20041;-67
2023/10/02 17:37:04;;;;;;;10.23;4.85;;;;;;;;;;10295112;28;20075;-67
2023/10/02 17:42:02;;;;;;;9.15;4.75;;;;;;;;;;10296809;28;20075;-66
2023/10/02 17:47:01;;;;;;;16.77;5.13;;;;;;;;;;10294290;28;20075;-67
2023/10/02 17:52:01;;;;;;;10.32;4.85;;;;;;;;;;10290827;28;20608;-67
2023/10/02 17:56:59;;;;;;;11.70;4.53;;;;;;;;;;10295410;28;20073;-69
2023/10/02 18:02:00;;;;;;;13.63;5.28;;;;;;;;;;10291597;28;20072;-67
2023/10/02 18:07:04;;;;;;;12.10;4.80;;;;;;;;;;10292104;28;20085;-67
2023/10/02 18:12:02;;;;;;;13.43;5.88;;;;;;;;;;10291647;28;20052;-66
2023/10/02 18:17:00;;;;;;;10.23;6.60;;;;;;;;;;10290926;28;20763;-66
2023/10/02 18:21:59;;;;;;;12.98;5.93;;;;;;;;;;10292181;28;20275;-66
2023/10/02 18:27:00;;;;;;;12.35;5.70;;;;;;;;;;10291131;28;20072;-68
2023/10/02 18:31:58;;;;;;;9.23;6.50;;;;;;;;;;10294759;28;20083;-66
2023/10/02 18:36:57;;;;;;;16.42;7.13;;;;;;;;;;10292070;28;20083;-66
2023/10/02 18:41:55;;;;;;;15.88;6.55;;;;;;;;;;10293192;28;20072;-68
2023/10/02 18:46:57;;;;;;;14.02;6.20;;;;;;;;;;10294084;28;20532;-67
2023/10/02 18:51:55;;;;;;;12.77;5.32;;;;;;;;;;10292521;28;20075;-67
2023/10/02 18:56:53;;;;;;;14.57;8.65;;;;;;;;;;10291183;28;20072;-67
2023/10/02 19:01:52;;;;;;;19.00;12.50;;;;;;;;;;10291859;28;20125;-67
2023/10/02 19:06:51;;;;;;;19.00;13.57;;;;;;;;;;10292999;28;20067;-67
2023/10/02 19:11:49;;;;;;;18.83;11.55;;;;;;;;;;10291700;28;20539;-66
2023/10/02 19:16:48;;;;;;;18.75;10.43;;;;;;;;;;10291139;28;20087;-66
2023/10/02 19:21:47;;;;;;;24.25;9.85;;;;;;;;;;10289054;28;20068;-65
2023/10/02 19:26:47;;;;;;;16.67;8.32;;;;;;;;;;10290542;28;20072;-65
2023/10/02 19:31:46;;;;;;;14.15;7.45;;;;;;;;;;10290881;28;20501;-66
2023/10/02 19:36:48;;;;;;;14.18;6.10;;;;;;;;;;10292089;28;20940;-67
2023/10/02 19:41:48;;;;;;;15.00;6.53;;;;;;;;;;10291697;28;20549;-67
2023/10/02 19:46:47;;;;;;;9.90;5.20;;;;;;;;;;10291800;28;20057;-67
2023/10/02 19:51:46;;;;;;;15.32;5.63;;;;;;;;;;10290979;28;20075;-67
2023/10/02 19:56:45;;;;;;;14.80;6.88;;;;;;;;;;10292359;28;20083;-67
2023/10/02 20:01:48;;;;;;;11.05;5.82;;;;;;;;;;10288702;28;20061;-67
2023/10/02 20:06:48;;;;;;;17.15;7.50;;;;;;;;;;10287488;28;20060;-69
2023/10/02 20:11:46;;;;;;;14.45;8.38;;;;;;;;;;10296612;28;20517;-68
2023/10/02 20:16:48;;;;;;;12.50;8.82;;;;;;;;;;10290789;28;20088;-67
2023/10/02 20:21:46;;;;;;;15.95;9.65;;;;;;;;;;10290475;28;20587;-67
2023/10/02 20:26:46;;;;;;;13.95;8.70;;;;;;;;;;10294220;28;20076;-67
2023/10/02 20:31:46;;;;;;;11.45;7.30;;;;;;;;;;10299114;28;20072;-67
2023/10/02 20:36:44;;;;;;;14.07;7.80;;;;;;;;;;10294968;28;20494;-68
2023/10/02 20:41:43;;;;;;;17.83;8.90;;;;;;;;;;10297733;28;20064;-67
2023/10/02 20:46:43;;;;;;;15.88;6.97;;;;;;;;;;10298304;28;20475;-68
2023/10/02 20:51:47;;;;;;;15.07;8.35;;;;;;;;;;10290830;28;20052;-68
2023/10/02 20:57:04;;;;;;;17.48;8.65;;;;;;;;;;10292459;28;20083;-66
2023/10/02 21:02:15;;;;;;;21.42;9.02;;;;;;;;;;10295206;28;20463;-68
2023/10/02 21:07:15;;;;;;;22.35;8.77;;;;;;;;;;10288360;28;20079;-68
2023/10/02 21:12:16;;;;;;;14.90;6.97;;;;;;;;;;10295871;28;20080;-69
2023/10/02 21:17:21;;;;;;;15.45;7.32;;;;;;;;;;10289998;28;20078;-67
2023/10/02 21:22:21;;;;;;;20.27;8.20;;;;;;;;;;10284555;28;20077;-66
2023/10/02 21:27:19;;;;;;;12.57;6.88;;;;;;;;;;10293463;28;20068;-67
2023/10/02 21:32:18;;;;;;;14.63;5.97;;;;;;;;;;10296132;28;20087;-66
2023/10/02 21:37:16;;;;;;;12.65;5.43;;;;;;;;;;10291620;28;20502;-67
2023/10/02 21:42:16;;;;;;;19.95;5.78;;;;;;;;;;10292574;28;20068;-66
2023/10/02 21:47:14;;;;;;;9.30;5.78;;;;;;;;;;10294526;28;20072;-67
2023/10/02 21:52:12;;;;;;;13.32;5.28;;;;;;;;;;10292943;28;20178;-67
2023/10/02 21:57:10;;;;;;;14.18;5.72;;;;;;;;;;10287580;28;20099;-66
2023/10/02 22:02:10;;;;;;;11.70;4.63;;;;;;;;;;10289310;28;20075;-67
2023/10/02 22:07:09;;;;;;;9.38;4.75;;;;;;;;;;10294109;28;20076;-67
2023/10/02 22:12:07;;;;;;;14.43;4.82;;;;;;;;;;10293957;28;20133;-67
2023/10/02 22:17:13;;;;;;;11.00;4.75;;;;;;;;;;10295603;28;20084;-66
2023/10/02 22:22:13;;;;;;;10.70;4.90;;;;;;;;;;10292234;28;20094;-68
2023/10/02 22:27:13;;;;;;;13.10;5.72;;;;;;;;;;10294255;28;20064;-66
2023/10/02 22:32:12;;;;;;;10.18;5.90;;;;;;;;;;10287880;28;20068;-66
2023/10/02 22:37:13;;;;;;;10.27;4.90;;;;;;;;;;10292547;28;20080;-67
2023/10/02 22:42:15;;;;;;;11.38;5.65;;;;;;;;;;10293974;28;20076;-67
2023/10/02 22:47:13;;;;;;;11.70;6.00;;;;;;;;;;10292541;28;20160;-67
2023/10/02 22:52:14;;;;;;;15.90;5.35;;;;;;;;;;10293434;28;20072;-67
2023/10/02 22:57:12;;;;;;;10.90;5.25;;;;;;;;;;10291938;28;20072;-67
2023/10/02 23:02:13;;;;;;;13.40;6.35;;;;;;;;;;10289412;28;20083;-67
2023/10/02 23:07:11;;;;;;;16.27;5.93;;;;;;;;;;10291518;28;20083;-67
2023/10/02 23:12:10;;;;;;;9.35;5.40;;;;;;;;;;10292927;28;20079;-67
2023/10/02 23:17:08;;;;;;;11.80;5.65;;;;;;;;;;10286282;28;20572;-67
2023/10/02 23:22:08;;;;;;;10.02;5.45;;;;;;;;;;10289060;28;20079;-66
2023/10/02 23:27:08;;;;;;;17.85;5.53;;;;;;;;;;10288478;28;20061;-67
2023/10/02 23:32:07;;;;;;;13.30;6.60;;;;;;;;;;10290529;28;20099;-67
2023/10/02 23:37:06;;;;;;;15.20;5.63;;;;;;;;;;10290839;28;20090;-67
2023/10/02 23:42:06;;;;;;;8.93;4.78;;;;;;;;;;10290930;28;20069;-66
2023/10/02 23:47:05;;;;;;;8.82;4.57;;;;;;;;;;10290825;28;20072;-67
2023/10/02 23:52:05;;;;;;;6.45;5.35;;;;;;;;;;10291220;28;20498;-67
2023/10/02 23:57:04;;;;;;;10.43;5.50;;;;;;;;;;10291405;28;20076;-66
